createdAt,value
2019-04-23T00:00:03.022Z,993.67
2019-04-23T00:00:23.373Z,993.67
2019-04-23T00:01:14.475Z,993.65
2019-04-23T00:01:55.384Z,993.67
2019-04-23T00:02:29.021Z,993.63
2019-04-23T00:03:12.579Z,993.63
2019-04-23T00:03:51.374Z,993.61
2019-04-23T00:04:35.002Z,993.59
2019-04-23T00:05:16.773Z,993.59
2019-04-23T00:06:47.373Z,993.59
2019-04-23T00:08:16.122Z,993.64
2019-04-23T00:09:32.718Z,993.61
2019-04-23T00:10:18.592Z,993.6
2019-04-23T00:10:58.243Z,993.6
2019-04-23T00:11:39.235Z,993.57
2019-04-23T00:12:18.993Z,993.58
2019-04-23T00:12:52.410Z,993.56
2019-04-23T00:13:36.959Z,993.58
2019-04-23T00:14:19.147Z,993.55
2019-04-23T00:15:04.215Z,993.51
2019-04-23T00:15:40.037Z,993.53
2019-04-23T00:16:20.065Z,993.56
2019-04-23T00:16:57.419Z,993.48
2019-04-23T00:17:41.776Z,993.51
2019-04-23T00:18:29.911Z,993.51
2019-04-23T00:18:55.645Z,993.48
2019-04-23T00:19:46.979Z,993.45
2019-04-23T00:20:25.152Z,993.46
2019-04-23T00:21:05.621Z,993.44
2019-04-23T00:21:45.722Z,993.44
2019-04-23T00:22:28.521Z,993.42
2019-04-23T00:23:51.208Z,993.44
2019-04-23T00:24:46.004Z,993.47
2019-04-23T00:25:32.862Z,993.43
2019-04-23T00:27:22.182Z,993.39
2019-04-23T00:27:57.671Z,993.4
2019-04-23T00:28:40.680Z,993.46
2019-04-23T00:29:55.693Z,993.39
2019-04-23T00:30:42.638Z,993.37
2019-04-23T00:31:18.092Z,993.36
2019-04-23T00:31:59.354Z,993.36
2019-04-23T00:32:39.024Z,993.4
2019-04-23T00:33:24.665Z,993.41
2019-04-23T00:34:00.802Z,993.4
2019-04-23T00:34:47.131Z,993.38
2019-04-23T00:35:17.872Z,993.36
2019-04-23T00:36:00.911Z,993.33
2019-04-23T00:36:43.994Z,993.39
2019-04-23T00:38:10.287Z,993.43
2019-04-23T00:39:01.102Z,993.37
2019-04-23T00:39:33.692Z,993.41
2019-04-23T00:40:10.011Z,993.41
2019-04-23T00:40:50.736Z,993.44
2019-04-23T00:41:36.118Z,993.41
2019-04-23T00:42:13.635Z,993.45
2019-04-23T00:42:53.050Z,993.41
2019-04-23T00:43:32.405Z,993.42
2019-04-23T00:44:56.112Z,993.35
2019-04-23T00:46:21.972Z,993.42
2019-04-23T00:47:00.639Z,993.41
2019-04-23T00:47:44.526Z,993.37
2019-04-23T00:48:34.784Z,993.37
2019-04-23T00:49:04.752Z,993.37
2019-04-23T00:49:48.775Z,993.41
2019-04-23T00:50:28.113Z,993.28
2019-04-23T00:50:58.133Z,993.29
2019-04-23T00:51:49.471Z,993.31
2019-04-23T00:52:31.812Z,993.34
2019-04-23T00:53:10.778Z,993.33
2019-04-23T00:54:05.548Z,993.32
2019-04-23T00:54:31.811Z,993.27
2019-04-23T00:55:14.306Z,993.27
2019-04-23T00:55:55.468Z,993.29
2019-04-23T00:57:14.786Z,993.29
2019-04-23T01:01:42.353Z,993.27
2019-04-23T01:02:22.735Z,993.19
2019-04-23T01:03:05.599Z,993.22
2019-04-23T01:03:39.245Z,993.19
2019-04-23T01:04:25.281Z,993.18
2019-04-23T01:05:10.112Z,993.22
2019-04-23T01:05:46.476Z,993.2
2019-04-23T01:06:23.389Z,993.15
2019-04-23T01:07:10.892Z,993.18
2019-04-23T01:07:49.586Z,993.17
2019-04-23T01:08:29.459Z,993.21
2019-04-23T01:09:07.745Z,993.19
2019-04-23T01:09:52.255Z,993.19
2019-04-23T01:10:34.273Z,993.23
2019-04-23T01:11:19.795Z,992.62
2019-04-23T01:11:57.667Z,993.18
2019-04-23T01:12:45.751Z,993.2
2019-04-23T01:13:22.170Z,993.2
2019-04-23T01:13:52.806Z,993.19
2019-04-23T01:14:38.223Z,993.19
2019-04-23T01:15:25.295Z,993.14
2019-04-23T01:15:59.401Z,993.17
2019-04-23T01:16:37.177Z,993.1
2019-04-23T01:17:25.997Z,993.12
2019-04-23T01:18:10.749Z,993.11
2019-04-23T01:19:30.933Z,993.1
2019-04-23T01:20:00.918Z,993.06
2019-04-23T01:21:05.599Z,993.07
2019-04-23T01:21:47.352Z,993.1
2019-04-23T01:22:27.402Z,993.07
2019-04-23T01:23:09.495Z,993.07
2019-04-23T01:23:54.382Z,993.05
2019-04-23T01:24:33.220Z,993.08
2019-04-23T01:25:20.862Z,993.05
2019-04-23T01:26:01.875Z,993.08
2019-04-23T01:27:01.586Z,993.07
2019-04-23T01:28:21.574Z,993.04
2019-04-23T01:29:01.289Z,993.04
2019-04-23T01:29:42.298Z,993
2019-04-23T01:30:19.208Z,992.99
2019-04-23T01:31:08.721Z,993.02
2019-04-23T01:31:47.369Z,993.04
2019-04-23T01:32:25.264Z,992.99
2019-04-23T01:33:00.994Z,993.04
2019-04-23T01:34:31.027Z,992.94
2019-04-23T01:35:15.923Z,993
2019-04-23T01:36:02.725Z,993.01
2019-04-23T01:37:09.032Z,992.98
2019-04-23T01:37:50.364Z,993.01
2019-04-23T01:39:15.580Z,992.42
2019-04-23T01:40:03.570Z,992.9
2019-04-23T01:40:40.223Z,992.91
2019-04-23T01:41:26.359Z,992.95
2019-04-23T01:43:22.390Z,992.88
2019-04-23T01:44:03.394Z,992.88
2019-04-23T01:46:20.923Z,992.88
2019-04-23T01:47:00.475Z,992.88
2019-04-23T01:47:54.281Z,992.91
2019-04-23T01:48:17.661Z,992.88
2019-04-23T01:49:20.322Z,992.86
2019-04-23T01:51:45.966Z,992.88
2019-04-23T01:52:31.542Z,992.85
2019-04-23T01:54:30.178Z,992.85
2019-04-23T01:55:14.792Z,992.8
2019-04-23T01:55:50.891Z,992.78
2019-04-23T01:56:28.269Z,992.81
2019-04-23T01:57:16.206Z,992.82
2019-04-23T01:59:17.787Z,992.81
2019-04-23T02:00:01.423Z,992.83
2019-04-23T02:01:15.846Z,992.78
2019-04-23T02:01:57.797Z,992.82
2019-04-23T02:02:42.932Z,992.82
2019-04-23T02:03:19.238Z,992.79
2019-04-23T02:04:03.058Z,992.83
2019-04-23T02:04:42.801Z,992.85
2019-04-23T02:05:27.121Z,992.82
2019-04-23T02:05:59.866Z,992.84
2019-04-23T02:06:44.656Z,992.8
2019-04-23T02:07:29.382Z,992.84
2019-04-23T02:08:03.106Z,992.79
2019-04-23T02:08:58.065Z,992.77
2019-04-23T02:09:33.991Z,992.79
2019-04-23T02:11:00.020Z,992.73
2019-04-23T02:11:31.459Z,992.72
2019-04-23T02:12:10.904Z,992.7
2019-04-23T02:12:55.303Z,992.7
2019-04-23T02:14:12.719Z,992.67
2019-04-23T02:14:54.521Z,992.71
2019-04-23T02:15:36.131Z,992.66
2019-04-23T02:16:18.750Z,992.62
2019-04-23T02:16:54.945Z,992.63
2019-04-23T02:17:37.544Z,992.58
2019-04-23T02:18:15.616Z,992.61
2019-04-23T02:19:02.679Z,992.63
2019-04-23T02:19:45.594Z,992.58
2019-04-23T02:20:27.415Z,992.55
2019-04-23T02:20:58.836Z,992.58
2019-04-23T02:21:45.042Z,992.57
2019-04-23T02:22:29.807Z,992.54
2019-04-23T02:23:11.218Z,992.55
2019-04-23T02:23:42.207Z,992.57
2019-04-23T02:24:24.206Z,992.57
2019-04-23T02:25:12.999Z,992.54
2019-04-23T02:26:27.573Z,992.55
2019-04-23T02:27:11.594Z,992.54
2019-04-23T02:27:59.187Z,992.51
2019-04-23T02:28:38.358Z,992.51
2019-04-23T02:29:28.239Z,992.52
2019-04-23T02:30:14.806Z,992.47
2019-04-23T02:30:57.421Z,992.45
2019-04-23T02:31:44.415Z,992.48
2019-04-23T02:32:59.046Z,992.5
2019-04-23T02:33:34.130Z,992.45
2019-04-23T02:34:57.380Z,992.46
2019-04-23T02:36:22.499Z,992.47
2019-04-23T02:37:44.902Z,992.46
2019-04-23T02:38:18.293Z,992.5
2019-04-23T02:38:55.349Z,992.42
2019-04-23T02:39:39.157Z,992.42
2019-04-23T02:42:28.019Z,992.4
2019-04-23T02:43:06.147Z,992.41
2019-04-23T02:43:25.741Z,992.44
2019-04-23T02:45:47.499Z,992.36
2019-04-23T02:46:08.920Z,992.39
2019-04-23T02:47:07.750Z,992.36
2019-04-23T02:47:41.641Z,992.33
2019-04-23T02:48:23.794Z,992.33
2019-04-23T02:49:04.147Z,992.33
2019-04-23T02:49:53.880Z,992.31
2019-04-23T02:51:03.318Z,992.29
2019-04-23T02:53:14.182Z,992.27
2019-04-23T02:55:17.005Z,992.29
2019-04-23T02:56:00.953Z,992.26
2019-04-23T02:57:12.642Z,992.27
2019-04-23T02:58:00.398Z,992.27
2019-04-23T02:58:41.626Z,992.26
2019-04-23T02:59:39.638Z,992.29
2019-04-23T03:00:11.153Z,992.28
2019-04-23T03:00:54.918Z,992.27
2019-04-23T03:02:14.086Z,992.25
2019-04-23T03:03:33.100Z,992.25
2019-04-23T03:05:24.253Z,992.21
2019-04-23T03:06:18.670Z,992.23
2019-04-23T03:07:32.762Z,992.14
2019-04-23T03:08:05.959Z,992.22
2019-04-23T03:08:46.227Z,992.18
2019-04-23T03:09:44.258Z,992.19
2019-04-23T03:10:20.230Z,992.16
2019-04-23T03:11:06.941Z,992.15
2019-04-23T03:11:40.031Z,992.2
2019-04-23T03:12:31.149Z,992.18
2019-04-23T03:13:08.886Z,992.21
2019-04-23T03:14:00.136Z,992.18
2019-04-23T03:14:23.001Z,992.2
2019-04-23T03:15:19.291Z,992.14
2019-04-23T03:17:02.529Z,992.11
2019-04-23T03:17:57.258Z,992.1
2019-04-23T03:18:38.799Z,992.09
2019-04-23T03:19:09.307Z,992.13
2019-04-23T03:19:58.315Z,992.1
2019-04-23T03:20:32.267Z,992.13
2019-04-23T03:22:34.920Z,992.09
2019-04-23T03:23:31.554Z,992.1
2019-04-23T03:25:55.933Z,992.12
2019-04-23T03:26:55.044Z,992.11
2019-04-23T03:27:55.173Z,992.09
2019-04-23T03:31:40.477Z,992.09
2019-04-23T03:33:52.154Z,992.02
2019-04-23T03:36:08.891Z,992.04
2019-04-23T03:38:18.663Z,992.02
2019-04-23T03:39:49.863Z,992.02
2019-04-23T03:41:06.405Z,992.01
2019-04-23T03:41:39.012Z,992.01
2019-04-23T03:42:16.964Z,991.99
2019-04-23T03:44:28.741Z,992
2019-04-23T03:45:24.762Z,991.99
2019-04-23T03:45:58.521Z,991.97
2019-04-23T03:46:29.095Z,991.99
2019-04-23T03:47:10.519Z,991.98
2019-04-23T03:47:47.929Z,991.97
2019-04-23T03:48:40.785Z,991.99
2019-04-23T03:49:12.764Z,991.96
2019-04-23T03:50:14.515Z,991.95
2019-04-23T03:51:25.869Z,991.97
2019-04-23T03:52:11.821Z,991.96
2019-04-23T03:52:38.180Z,991.95
2019-04-23T03:54:16.062Z,991.92
2019-04-23T03:57:42.764Z,991.95
2019-04-23T03:58:36.505Z,991.96
2019-04-23T03:59:19.698Z,991.95
2019-04-23T04:00:36.830Z,991.94
2019-04-23T04:01:21.281Z,991.94
2019-04-23T04:02:08.754Z,991.91
2019-04-23T04:02:48.130Z,991.95
2019-04-23T04:03:31.903Z,991.93
2019-04-23T04:04:20.131Z,991.99
2019-04-23T04:04:36.330Z,992.02
2019-04-23T04:05:35.498Z,991.97
2019-04-23T04:06:23.201Z,991.97
2019-04-23T04:07:09.584Z,991.97
2019-04-23T04:07:46.752Z,992.02
2019-04-23T04:08:17.770Z,991.95
2019-04-23T04:21:24.320Z,991.9
2019-04-23T04:24:09.892Z,991.86
2019-04-23T04:24:39.370Z,991.87
2019-04-23T04:25:38.998Z,991.88
2019-04-23T04:26:03.943Z,991.88
2019-04-23T04:26:50.715Z,991.88
2019-04-23T04:28:11.395Z,991.85
2019-04-23T05:07:08.419Z,991.68
2019-04-23T05:07:47.209Z,991.66
2019-04-23T05:09:18.918Z,991.66
2019-04-23T05:10:51.096Z,991.66
2019-04-23T05:11:15.808Z,991.66
2019-04-23T05:12:00.079Z,991.66
2019-04-23T05:12:43.576Z,991.64
2019-04-23T05:13:29.929Z,991.62
2019-04-23T05:14:05.599Z,991.61
2019-04-23T05:14:43.350Z,991.62
2019-04-23T05:15:27.722Z,991.61
2019-04-23T05:15:57.889Z,991.59
2019-04-23T05:17:23.491Z,991.6
2019-04-23T05:18:07.234Z,991.59
2019-04-23T05:19:28.503Z,991.57
2019-04-23T05:20:04.351Z,991.59
2019-04-23T05:20:42.762Z,991.58
2019-04-23T05:22:48.531Z,991.52
2019-04-23T05:24:34.853Z,991.51
2019-04-23T05:24:39.480Z,991.49
2019-04-23T05:25:24.120Z,991.55
2019-04-23T05:26:08.326Z,991.5
2019-04-23T05:26:37.116Z,991.49
2019-04-23T05:27:27.076Z,991.48
2019-04-23T05:28:18.566Z,991.48
2019-04-23T05:28:55.365Z,991.48
2019-04-23T05:29:19.677Z,991.5
2019-04-23T05:30:14.715Z,991.48
2019-04-23T05:30:51.380Z,991.51
2019-04-23T05:32:04.037Z,991.48
2019-04-23T05:32:48.524Z,991.46
2019-04-23T05:33:28.545Z,991.44
2019-04-23T05:34:26.171Z,991.42
2019-04-23T05:34:55.320Z,991.41
2019-04-23T05:36:05.855Z,991.42
2019-04-23T05:36:19.920Z,991.43
2019-04-23T05:36:59.696Z,991.43
2019-04-23T05:37:41.715Z,991.42
2019-04-23T05:38:28.930Z,991.41
2019-04-23T05:38:58.176Z,991.44
2019-04-23T05:39:37.724Z,991.41
2019-04-23T05:40:29.558Z,991.42
2019-04-23T05:41:02.871Z,991.41
2019-04-23T05:41:34.600Z,991.42
2019-04-23T05:42:19.202Z,991.43
2019-04-23T05:43:44.749Z,991.44
2019-04-23T05:44:29.222Z,991.43
2019-04-23T05:45:07.802Z,991.4
2019-04-23T05:46:14.056Z,991.42
2019-04-23T05:47:20.157Z,991.43
2019-04-23T05:47:58.370Z,991.4
2019-04-23T05:48:52.094Z,991.41
2019-04-23T05:49:17.158Z,991.36
2019-04-23T05:49:58.780Z,991.38
2019-04-23T05:50:50.428Z,991.37
2019-04-23T05:51:17.686Z,991.35
2019-04-23T05:52:15.875Z,991.33
2019-04-23T05:53:18.193Z,991.4
2019-04-23T05:54:18.483Z,991.39
2019-04-23T05:54:49.530Z,991.36
2019-04-23T05:55:26.258Z,991.36
2019-04-23T05:56:06.287Z,991.36
2019-04-23T05:56:43.560Z,991.35
2019-04-23T05:57:25.176Z,991.35
2019-04-23T05:58:16.353Z,991.37
2019-04-23T05:58:51.976Z,991.36
2019-04-23T05:59:29.424Z,991.3
2019-04-23T06:00:07.262Z,991.3
2019-04-23T06:00:54.136Z,991.31
2019-04-23T06:01:49.120Z,991.29
2019-04-23T06:02:10.368Z,991.27
2019-04-23T06:02:55.293Z,991.29
2019-04-23T06:03:37.850Z,991.31
2019-04-23T06:04:57.004Z,991.26
2019-04-23T06:05:38.530Z,991.27
2019-04-23T06:06:19.941Z,991.26
2019-04-23T06:07:14.487Z,991.29
2019-04-23T06:08:17.508Z,991.28
2019-04-23T06:08:58.227Z,991.27
2019-04-23T06:09:39.086Z,991.24
2019-04-23T06:10:17.925Z,991.28
2019-04-23T06:11:01.779Z,991.28
2019-04-23T06:12:24.513Z,991.31
2019-04-23T06:13:04.331Z,991.32
2019-04-23T06:13:52.079Z,991.31
2019-04-23T06:15:10.914Z,991.29
2019-04-23T06:16:04.503Z,991.28
2019-04-23T06:16:35.497Z,991.27
2019-04-23T06:17:20.769Z,991.29
2019-04-23T06:18:01.377Z,991.34
2019-04-23T06:18:43.842Z,991.27
2019-04-23T06:19:16.736Z,991.31
2019-04-23T06:20:02.714Z,991.31
2019-04-23T06:20:48.454Z,991.32
2019-04-23T06:21:23.528Z,991.27
2019-04-23T06:22:22.194Z,991.28
2019-04-23T06:23:28.636Z,991.3
2019-04-23T06:24:09.324Z,991.23
2019-04-23T06:24:44.963Z,991.3
2019-04-23T06:25:39.618Z,991.29
2019-04-23T06:26:31.861Z,991.3
2019-04-23T06:27:45.766Z,991.28
2019-04-23T06:28:12.550Z,991.28
2019-04-23T06:28:57.280Z,991.26
2019-04-23T06:30:17.328Z,991.23
2019-04-23T06:32:18.813Z,991.2
2019-04-23T06:33:05.407Z,991.25
2019-04-23T06:33:46.156Z,991.18
2019-04-23T06:35:03.391Z,991.18
2019-04-23T06:35:44.668Z,991.16
2019-04-23T06:37:08.491Z,991.11
2019-04-23T06:38:12.247Z,991.11
2019-04-23T06:38:40.084Z,991.12
2019-04-23T06:39:06.246Z,991.12
2019-04-23T06:39:54.671Z,991.15
2019-04-23T06:40:33.418Z,991.11
2019-04-23T06:41:15.167Z,991.08
2019-04-23T06:41:54.564Z,991.07
2019-04-23T06:42:34.193Z,991.07
2019-04-23T06:43:17.958Z,991.02
2019-04-23T06:44:05.632Z,991.06
2019-04-23T06:44:37.073Z,991.06
2019-04-23T06:45:21.953Z,991.02
2019-04-23T06:46:04.675Z,991.04
2019-04-23T06:46:49.977Z,991.06
2019-04-23T06:47:24.640Z,991
2019-04-23T06:48:15.279Z,990.98
2019-04-23T06:48:46.779Z,991.03
2019-04-23T06:49:36.850Z,991.02
2019-04-23T06:50:03.354Z,991.03
2019-04-23T06:50:55.894Z,991
2019-04-23T06:52:18.224Z,991
2019-04-23T06:52:54.365Z,990.99
2019-04-23T06:53:42.615Z,990.98
2019-04-23T06:55:08.427Z,990.93
2019-04-23T06:55:49.051Z,990.96
2019-04-23T06:56:32.230Z,990.95
2019-04-23T06:57:12.536Z,990.97
2019-04-23T06:57:45.838Z,990.92
2019-04-23T06:58:32.001Z,990.9
2019-04-23T06:59:11.792Z,990.93
2019-04-23T07:00:06.112Z,990.92
2019-04-23T07:00:33.774Z,990.95
2019-04-23T07:01:09.397Z,990.88
2019-04-23T07:02:11.339Z,990.95
2019-04-23T07:02:37.391Z,990.94
2019-04-23T07:03:21.705Z,990.89
2019-04-23T07:03:56.783Z,990.93
2019-04-23T07:04:40.811Z,990.88
2019-04-23T07:05:37.311Z,990.85
2019-04-23T07:06:10.151Z,990.91
2019-04-23T07:06:42.514Z,990.87
2019-04-23T07:08:02.558Z,990.79
2019-04-23T07:09:38.483Z,990.78
2019-04-23T07:10:03.418Z,990.84
2019-04-23T07:10:47.427Z,990.81
2019-04-23T07:11:33.615Z,990.81
2019-04-23T07:12:08.383Z,990.83
2019-04-23T07:12:46.966Z,990.79
2019-04-23T07:13:39.841Z,990.72
2019-04-23T07:13:58.223Z,990.78
2019-04-23T07:14:55.222Z,990.75
2019-04-23T07:16:14.305Z,990.75
2019-04-23T07:16:55.772Z,990.76
2019-04-23T07:17:39.291Z,990.76
2019-04-23T07:18:22.344Z,990.75
2019-04-23T07:19:09.020Z,990.76
2019-04-23T07:19:46.385Z,990.75
2019-04-23T07:20:33.282Z,990.74
2019-04-23T07:21:12.800Z,990.72
2019-04-23T07:21:57.287Z,990.7
2019-04-23T07:22:24.935Z,990.71
2019-04-23T07:23:18.865Z,990.72
2019-04-23T07:23:58.536Z,990.68
2019-04-23T07:24:32.619Z,990.71
2019-04-23T07:25:12.683Z,990.7
2019-04-23T07:25:55.520Z,990.75
2019-04-23T07:27:18.955Z,990.7
2019-04-23T07:28:06.307Z,990.65
2019-04-23T07:28:49.161Z,990.63
2019-04-23T07:29:24.915Z,990.61
2019-04-23T07:30:08.176Z,990.61
2019-04-23T07:30:38.094Z,990.6
2019-04-23T07:32:05.091Z,990.6
2019-04-23T07:32:49.428Z,990.59
2019-04-23T07:33:34.522Z,990.55
2019-04-23T07:34:55.080Z,990.49
2019-04-23T07:35:30.034Z,990.51
2019-04-23T07:36:16.936Z,990.46
2019-04-23T07:36:53.591Z,990.55
2019-04-23T07:37:54.429Z,990.48
2019-04-23T07:38:20.148Z,990.52
2019-04-23T07:39:45.415Z,990.45
2019-04-23T07:41:05.446Z,990.45
2019-04-23T07:42:24.378Z,990.45
2019-04-23T07:43:07.844Z,990.47
2019-04-23T07:43:48.460Z,990.43
2019-04-23T07:44:35.081Z,990.48
2019-04-23T07:45:51.538Z,990.45
2019-04-23T07:46:31.719Z,990.46
2019-04-23T07:47:15.208Z,990.47
2019-04-23T07:47:50.598Z,990.45
2019-04-23T07:48:20.640Z,990.38
2019-04-23T07:55:17.666Z,990.38
2019-04-23T07:55:54.643Z,990.37
2019-04-23T07:56:27.303Z,990.35
2019-04-23T07:57:58.099Z,990.27
2019-04-23T07:58:28.392Z,990.32
2019-04-23T07:59:17.363Z,990.31
2019-04-23T08:00:00.308Z,990.29
2019-04-23T08:01:33.946Z,990.31
2019-04-23T08:02:02.957Z,990.38
2019-04-23T08:03:05.171Z,990.32
2019-04-23T08:04:08.359Z,990.3
2019-04-23T08:05:00.363Z,990.31
2019-04-23T08:06:16.328Z,990.31
2019-04-23T08:06:58.850Z,990.37
2019-04-23T08:07:49.075Z,990.36
2019-04-23T08:08:22.542Z,990.36
2019-04-23T08:09:17.013Z,990.32
2019-04-23T08:10:00.051Z,990.33
2019-04-23T08:10:46.307Z,990.29
2019-04-23T08:13:30.767Z,990.31
2019-04-23T08:14:46.746Z,990.33
2019-04-23T08:15:27.889Z,990.27
2019-04-23T08:26:33.506Z,990.22
2019-04-23T08:27:48.305Z,990.28
2019-04-23T08:28:41.330Z,990.29
2019-04-23T08:29:13.700Z,990.22
2019-04-23T08:29:47.523Z,990.28
2019-04-23T08:30:32.097Z,990.29
2019-04-23T08:31:13.978Z,990.19
2019-04-23T08:31:59.846Z,990.25
2019-04-23T08:32:51.976Z,990.18
2019-04-23T08:33:10.744Z,990.31
2019-04-23T08:34:05.235Z,990.23
2019-04-23T08:34:42.880Z,990.41
2019-04-23T08:35:19.315Z,990.22
2019-04-23T08:36:48.091Z,990.18
2019-04-23T08:37:33.557Z,990.16
2019-04-23T08:38:50.406Z,990.18
2019-04-23T08:39:46.262Z,990.1
2019-04-23T08:40:13.057Z,990.18
2019-04-23T08:41:02.368Z,990.18
2019-04-23T08:41:41.037Z,990.19
2019-04-23T08:42:32.539Z,990.15
2019-04-23T08:43:00.156Z,990.16
2019-04-23T08:43:56.570Z,990.16
2019-04-23T08:44:27.116Z,990.14
2019-04-23T08:45:08.980Z,990.18
2019-04-23T08:45:34.980Z,990.17
2019-04-23T08:46:31.389Z,990.19
2019-04-23T08:47:39.650Z,990.24
2019-04-23T08:48:07.290Z,990.17
2019-04-23T08:48:27.078Z,990.15
2019-04-23T08:49:10.113Z,990.23
2019-04-23T08:49:56.235Z,990.14
2019-04-23T08:50:31.964Z,990.18
2019-04-23T08:51:20.587Z,990.26
2019-04-23T08:52:06.970Z,990.12
2019-04-23T08:52:42.752Z,990.09
2019-04-23T08:53:29.461Z,990.12
2019-04-23T08:54:13.067Z,990.15
2019-04-23T08:54:47.697Z,990.26
2019-04-23T08:55:20.736Z,990.2
2019-04-23T08:56:01.777Z,990.12
2019-04-23T08:56:47.724Z,990.09
2019-04-23T08:58:05.853Z,990.11
2019-04-23T08:58:39.401Z,990.12
2019-04-23T09:00:07.408Z,990.12
2019-04-23T09:01:04.921Z,990.14
2019-04-23T09:01:32.491Z,990.14
2019-04-23T09:02:47.446Z,990.31
2019-04-23T09:03:29.780Z,990.03
2019-04-23T09:04:16.513Z,990.21
2019-04-23T09:04:59.570Z,990.17
2019-04-23T09:06:15.609Z,990.25
2019-04-23T09:07:10.910Z,990.21
2019-04-23T09:07:53.562Z,990.2
2019-04-23T09:09:12.294Z,990.13
2019-04-23T09:09:56.467Z,990.06
2019-04-23T09:10:33.740Z,990.05
2019-04-23T09:11:29.706Z,989.97
2019-04-23T09:11:53.640Z,990.02
2019-04-23T09:12:41.498Z,990
2019-04-23T09:13:55.493Z,990.07
2019-04-23T09:14:43.168Z,990
2019-04-23T09:15:29.964Z,989.95
2019-04-23T09:15:59.683Z,990.03
2019-04-23T09:16:50.797Z,989.98
2019-04-23T09:18:09.104Z,989.93
2019-04-23T09:18:43.967Z,989.96
2019-04-23T09:20:21.662Z,989.92
2019-04-23T09:20:47.818Z,989.84
2019-04-23T09:21:32.486Z,989.89
2019-04-23T09:22:20.685Z,989.9
2019-04-23T09:23:01.579Z,989.89
2019-04-23T09:23:38.986Z,989.89
2019-04-23T09:24:19.752Z,989.92
2019-04-23T09:25:02.465Z,989.92
2019-04-23T09:26:20.364Z,990
2019-04-23T09:27:15.569Z,989.94
2019-04-23T09:27:43.978Z,989.74
2019-04-23T09:28:33.027Z,989.83
2019-04-23T09:29:03.709Z,989.87
2019-04-23T09:30:31.554Z,989.91
2019-04-23T09:32:12.971Z,989.81
2019-04-23T09:32:51.026Z,989.79
2019-04-23T09:33:22.649Z,989.84
2019-04-23T09:33:57.876Z,989.82
2019-04-23T09:34:42.728Z,989.75
2019-04-23T09:36:06.283Z,989.78
2019-04-23T09:36:47.257Z,989.78
2019-04-23T09:37:26.248Z,989.71
2019-04-23T09:38:06.888Z,989.72
2019-04-23T09:38:44.463Z,989.78
2019-04-23T09:39:27.145Z,989.67
2019-04-23T09:40:16.515Z,989.77
2019-04-23T09:41:03.903Z,989.69
2019-04-23T09:41:30.996Z,989.7
2019-04-23T09:42:23.835Z,989.73
2019-04-23T09:43:00.284Z,989.68
2019-04-23T09:43:36.528Z,989.58
2019-04-23T09:44:40.911Z,989.57
2019-04-23T09:45:12.377Z,989.63
2019-04-23T09:45:40.721Z,989.67
2019-04-23T09:46:23.261Z,989.56
2019-04-23T09:47:06.384Z,989.65
2019-04-23T09:47:50.275Z,989.53
2019-04-23T09:48:16.940Z,989.6
2019-04-23T09:49:05.370Z,989.54
2019-04-23T09:49:46.092Z,989.57
2019-04-23T09:50:28.008Z,989.57
2019-04-23T09:51:07.548Z,989.59
2019-04-23T09:52:35.533Z,989.58
2019-04-23T09:53:27.595Z,989.52
2019-04-23T09:53:57.561Z,989.45
2019-04-23T09:54:47.498Z,989.48
2019-04-23T09:55:51.131Z,989.47
2019-04-23T09:56:40.850Z,989.4
2019-04-23T09:57:15.729Z,989.4
2019-04-23T09:58:07.655Z,989.4
2019-04-23T09:58:51.230Z,989.38
2019-04-23T09:59:30.804Z,989.39
2019-04-23T10:00:16.627Z,989.37
2019-04-23T10:00:44.709Z,989.44
2019-04-23T10:01:28.790Z,989.39
2019-04-23T10:02:05.185Z,989.47
2019-04-23T10:02:46.881Z,989.41
2019-04-23T10:03:25.290Z,989.36
2019-04-23T10:04:03.878Z,989.37
2019-04-23T10:04:48.205Z,989.41
2019-04-23T10:05:28.653Z,989.4
2019-04-23T10:06:03.875Z,989.37
2019-04-23T10:06:38.662Z,989.38
2019-04-23T10:07:29.783Z,989.4
2019-04-23T10:08:04.922Z,989.38
2019-04-23T10:08:42.823Z,989.4
2019-04-23T10:09:20.736Z,989.43
2019-04-23T10:10:01.602Z,989.36
2019-04-23T10:10:42.267Z,989.4
2019-04-23T10:11:24.227Z,989.41
2019-04-23T10:12:03.129Z,989.32
2019-04-23T10:12:44.219Z,989.36
2019-04-23T10:13:26.029Z,989.42
2019-04-23T10:14:06.155Z,989.37
2019-04-23T10:14:53.779Z,989.34
2019-04-23T10:15:32.944Z,989.31
2019-04-23T10:16:12.149Z,989.35
2019-04-23T10:16:53.332Z,989.33
2019-04-23T10:17:35.979Z,989.33
2019-04-23T10:18:16.146Z,989.33
2019-04-23T10:18:57.365Z,989.37
2019-04-23T10:19:36.965Z,989.35
2019-04-23T10:20:18.542Z,989.29
2019-04-23T10:20:59.479Z,989.3
2019-04-23T10:21:41.719Z,989.28
2019-04-23T10:22:21.233Z,989.31
2019-04-23T10:23:04.078Z,989.29
2019-04-23T10:23:43.317Z,989.29
2019-04-23T10:24:25.295Z,989.28
2019-04-23T10:25:04.710Z,989.27
2019-04-23T10:25:45.773Z,989.33
2019-04-23T10:26:25.939Z,989.3
2019-04-23T10:27:06.295Z,989.27
2019-04-23T10:27:53.223Z,989.31
2019-04-23T10:28:27.135Z,989.3
2019-04-23T10:29:09.712Z,989.3
2019-04-23T11:07:40.626Z,989.36
2019-04-23T11:08:17.043Z,989.21
2019-04-23T11:08:59.758Z,989.23
2019-04-23T11:10:25.380Z,989.27
2019-04-23T11:11:52.213Z,989.24
2019-04-23T11:13:23.543Z,989.21
2019-04-23T11:13:58.510Z,989.22
2019-04-23T11:14:41.690Z,989.26
2019-04-23T11:15:26.334Z,989.28
2019-04-23T11:16:23.116Z,989.28
2019-04-23T11:19:31.775Z,989.23
2019-04-23T11:20:13.279Z,989.28
2019-04-23T11:20:47.776Z,989.24
2019-04-23T11:21:32.632Z,989.28
2019-04-23T11:22:27.883Z,989.18
2019-04-23T11:23:33.947Z,989.2
2019-04-23T11:24:29.291Z,989.22
2019-04-23T11:24:57.718Z,989.14
2019-04-23T11:26:21.451Z,989.28
2019-04-23T11:26:54.707Z,989.28
2019-04-23T11:27:41.851Z,989.2
2019-04-23T11:29:10.823Z,989.24
2019-04-23T11:29:48.163Z,989.19
2019-04-23T11:30:31.801Z,989.21
2019-04-23T11:31:11.697Z,989.25
2019-04-23T11:33:12.204Z,989.28
2019-04-23T11:33:50.490Z,989.28
2019-04-23T11:34:47.327Z,989.38
2019-04-23T11:35:19.431Z,989.13
2019-04-23T11:35:59.934Z,989.13
2019-04-23T11:36:51.922Z,989.13
2019-04-23T11:38:33.864Z,989.12
2019-04-23T11:38:48.147Z,989.13
2019-04-23T11:39:14.987Z,989.16
2019-04-23T11:40:32.601Z,989.12
2019-04-23T11:41:24.856Z,989.22
2019-04-23T11:42:42.344Z,989.12
2019-04-23T11:44:00.579Z,989.09
2019-04-23T11:45:32.044Z,989.23
2019-04-23T11:46:14.347Z,989.18
2019-04-23T11:46:53.095Z,989.13
2019-04-23T11:48:03.834Z,989.13
2019-04-23T11:50:18.476Z,989.1
2019-04-23T11:51:25.459Z,989.09
2019-04-23T11:52:29.916Z,989.04
2019-04-23T11:52:53.159Z,989.09
2019-04-23T11:53:40.745Z,989.08
2019-04-23T11:54:22.511Z,989.12
2019-04-23T11:55:11.590Z,989.18
2019-04-23T11:55:44.472Z,989.09
2019-04-23T11:56:50.854Z,989.15
2019-04-23T11:57:58.848Z,989.22
2019-04-23T11:58:26.699Z,989.13
2019-04-23T11:59:15.318Z,989.11
2019-04-23T11:59:52.477Z,989.06
2019-04-23T12:00:40.129Z,989.1
2019-04-23T12:01:36.991Z,989.15
2019-04-23T12:02:04.205Z,989.08
2019-04-23T12:02:43.071Z,989.04
2019-04-23T12:03:26.286Z,989.1
2019-04-23T12:04:58.980Z,989.04
2019-04-23T12:05:58.044Z,989.11
2019-04-23T12:06:16.665Z,989.1
2019-04-23T12:06:57.762Z,989.02
2019-04-23T12:07:33.768Z,989.03
2019-04-23T12:08:24.772Z,989.03
2019-04-23T12:08:54.455Z,989.01
2019-04-23T12:09:46.256Z,989.07
2019-04-23T12:10:28.551Z,989.08
2019-04-23T12:11:34.075Z,989.04
2019-04-23T12:12:27.841Z,989.04
2019-04-23T12:13:11.682Z,989.03
2019-04-23T12:13:50.987Z,989.09
2019-04-23T12:14:34.783Z,989.03
2019-04-23T12:15:17.688Z,988.96
2019-04-23T12:15:52.754Z,989.08
2019-04-23T12:17:18.357Z,989.07
2019-04-23T12:18:38.341Z,989.04
2019-04-23T12:19:43.776Z,988.93
2019-04-23T12:20:54.644Z,988.94
2019-04-23T12:21:27.620Z,988.97